createdAt,value
2023-01-17T00:02:21.193Z,6.70
2023-01-17T00:05:06.694Z,6.65
2023-01-17T00:07:52.215Z,6.78
2023-01-17T00:10:22.195Z,7.32
2023-01-17T00:12:58.111Z,7.60
2023-01-17T00:15:26.941Z,7.47
2023-01-17T00:17:54.060Z,6.90
2023-01-17T00:20:42.795Z,7.43
2023-01-17T00:23:34.710Z,7.38
2023-01-17T00:26:05.172Z,7.07
2023-01-17T00:28:37.205Z,7.57
2023-01-17T00:31:05.921Z,7.15
2023-01-17T00:33:33.328Z,6.80
2023-01-17T00:36:00.791Z,7.13
2023-01-17T00:38:30.599Z,7.10
2023-01-17T00:41:06.807Z,7.22
2023-01-17T00:43:52.944Z,7.55
2023-01-17T00:46:39.344Z,7.50
2023-01-17T00:49:25.499Z,7.88
2023-01-17T00:52:11.209Z,8.15
2023-01-17T00:54:57.040Z,7.75
2023-01-17T00:57:42.383Z,7.90
2023-01-17T01:00:30.464Z,6.72
2023-01-17T01:03:16.129Z,7.05
2023-01-17T01:06:01.874Z,8.15
2023-01-17T01:08:49.063Z,7.38
2023-01-17T01:11:38.404Z,6.38
2023-01-17T01:14:26.139Z,6.82
2023-01-17T01:17:12.023Z,6.15
2023-01-17T01:19:57.715Z,6.10
2023-01-17T01:22:43.433Z,6.30
2023-01-17T01:25:29.224Z,7.10
2023-01-17T01:28:26.229Z,6.95
2023-01-17T01:31:11.980Z,6.55
2023-01-17T01:33:39.023Z,7.82
2023-01-17T01:36:08.408Z,7.90
2023-01-17T01:38:35.411Z,7.10
2023-01-17T01:41:02.542Z,7.20
2023-01-17T01:43:58.683Z,7.35
2023-01-17T01:46:51.916Z,7.47
2023-01-17T01:49:24.670Z,6.78
2023-01-17T01:51:58.491Z,7.18
2023-01-17T01:54:37.889Z,7.63
2023-01-17T01:57:08.687Z,6.68
2023-01-17T01:59:40.274Z,7.57
2023-01-17T02:02:07.622Z,7.82
2023-01-17T02:04:36.659Z,8.02
2023-01-17T02:07:10.364Z,7.18
2023-01-17T02:09:37.809Z,7.10
2023-01-17T02:12:06.353Z,7.43
2023-01-17T02:14:33.342Z,6.60
2023-01-17T02:17:06.150Z,6.60
2023-01-17T02:19:48.048Z,6.32
2023-01-17T02:22:27.235Z,6.60
2023-01-17T02:25:48.008Z,6.78
2023-01-17T02:28:29.619Z,6.28
2023-01-17T02:31:08.621Z,6.88
2023-01-17T02:34:17.686Z,6.35
2023-01-17T02:37:08.126Z,6.40
2023-01-17T02:39:40.591Z,7.05
2023-01-17T02:42:15.972Z,7.38
2023-01-17T02:44:44.261Z,6.80
2023-01-17T02:47:29.044Z,6.20
2023-01-17T02:50:07.532Z,6.95
2023-01-17T02:52:47.120Z,7.15
2023-01-17T02:55:37.213Z,6.10
2023-01-17T02:58:26.614Z,6.00
2023-01-17T03:00:59.289Z,7.72
2023-01-17T03:04:05.847Z,7.82
2023-01-17T03:06:47.068Z,7.38
2023-01-17T03:09:17.937Z,7.18
2023-01-17T03:11:45.530Z,6.63
2023-01-17T03:14:12.614Z,7.28
2023-01-17T03:16:40.151Z,7.15
2023-01-17T03:19:07.076Z,7.30
2023-01-17T03:21:34.091Z,7.20
2023-01-17T03:24:01.230Z,6.65
2023-01-17T03:26:28.236Z,5.43
2023-01-17T03:28:55.272Z,6.70
2023-01-17T03:31:22.337Z,6.88
2023-01-17T03:33:49.341Z,6.95
2023-01-17T03:36:16.394Z,6.13
2023-01-17T03:38:43.379Z,8.35
2023-01-17T03:41:10.417Z,6.32
2023-01-17T03:43:37.406Z,6.55
2023-01-17T03:46:20.750Z,6.18
2023-01-17T03:48:47.829Z,6.30
2023-01-17T03:51:15.045Z,6.72
2023-01-17T03:53:42.582Z,7.30
2023-01-17T03:56:09.660Z,6.38
2023-01-17T03:58:36.655Z,7.45
2023-01-17T04:01:03.702Z,7.68
2023-01-17T04:03:31.240Z,6.28
2023-01-17T04:05:58.192Z,8.80
2023-01-17T04:08:25.354Z,7.80
2023-01-17T04:10:52.360Z,7.90
2023-01-17T04:13:19.349Z,6.05
2023-01-17T04:15:49.087Z,7.07
2023-01-17T04:18:20.471Z,6.47
2023-01-17T04:20:47.728Z,7.28
2023-01-17T04:23:14.773Z,8.82
2023-01-17T04:25:41.783Z,7.53
2023-01-17T04:28:10.132Z,7.55
2023-01-17T04:30:37.195Z,7.78
2023-01-17T04:33:04.353Z,6.72
2023-01-17T04:35:33.495Z,7.50
2023-01-17T04:38:00.797Z,8.18
2023-01-17T04:40:28.360Z,7.53
2023-01-17T04:42:56.415Z,8.90
2023-01-17T04:45:23.846Z,10.23
2023-01-17T04:47:50.795Z,9.15
2023-01-17T04:50:18.252Z,9.65
2023-01-17T04:52:45.272Z,9.15
2023-01-17T04:55:12.341Z,11.13
2023-01-17T04:57:39.284Z,10.63
2023-01-17T05:00:06.816Z,12.32
2023-01-17T05:02:33.896Z,9.23
2023-01-17T05:05:00.904Z,11.27
2023-01-17T05:07:27.852Z,9.77
2023-01-17T05:09:54.859Z,10.45
2023-01-17T05:12:21.885Z,11.63
2023-01-17T05:14:48.930Z,12.48
2023-01-17T05:17:15.971Z,8.18
2023-01-17T05:19:42.951Z,8.90
2023-01-17T05:22:15.624Z,9.77
2023-01-17T05:24:47.309Z,9.43
2023-01-17T05:27:14.855Z,9.88
2023-01-17T05:29:41.842Z,10.57
2023-01-17T05:32:08.839Z,8.75
2023-01-17T05:34:35.803Z,10.50
2023-01-17T05:37:02.823Z,9.35
2023-01-17T05:39:31.024Z,10.48
2023-01-17T05:41:59.219Z,10.20
2023-01-17T05:44:27.741Z,9.10
2023-01-17T05:46:56.285Z,9.02
2023-01-17T05:49:23.421Z,10.65
2023-01-17T05:51:51.445Z,10.00
2023-01-17T05:54:19.356Z,8.77
2023-01-17T05:56:46.319Z,9.43
2023-01-17T05:59:14.353Z,9.88
2023-01-17T06:01:41.568Z,10.52
2023-01-17T06:04:08.585Z,11.43
2023-01-17T06:06:35.622Z,11.57
2023-01-17T06:09:02.809Z,9.55
2023-01-17T06:11:30.576Z,9.10
2023-01-17T06:13:57.520Z,8.40
2023-01-17T06:16:24.545Z,9.90
2023-01-17T06:18:51.618Z,7.88
2023-01-17T06:21:19.715Z,9.20
2023-01-17T06:23:46.858Z,8.93
2023-01-17T06:26:13.907Z,7.15
2023-01-17T06:28:40.911Z,9.43
2023-01-17T06:31:08.935Z,7.72
2023-01-17T06:33:36.012Z,7.97
2023-01-17T06:36:03.150Z,6.72
2023-01-17T06:38:30.199Z,7.28
2023-01-17T06:41:00.345Z,6.35
2023-01-17T06:43:28.757Z,8.50
2023-01-17T06:45:55.719Z,6.85
2023-01-17T06:48:22.719Z,7.70
2023-01-17T06:50:49.936Z,6.10
2023-01-17T06:53:17.288Z,7.78
2023-01-17T06:55:44.282Z,8.35
2023-01-17T06:58:11.402Z,7.10
2023-01-17T07:00:40.474Z,7.95
2023-01-17T07:03:22.077Z,8.82
2023-01-17T07:05:49.768Z,8.20
2023-01-17T07:08:17.805Z,7.90
2023-01-17T07:10:46.710Z,8.77
2023-01-17T07:13:14.200Z,6.85
2023-01-17T07:15:41.350Z,7.65
2023-01-17T07:18:08.650Z,9.48
2023-01-17T07:20:35.692Z,10.70
2023-01-17T07:23:02.711Z,10.13
2023-01-17T07:25:29.718Z,10.02
2023-01-17T07:27:59.324Z,9.60
2023-01-17T07:30:27.037Z,8.90
2023-01-17T07:32:54.811Z,8.60
2023-01-17T07:35:22.455Z,9.00
2023-01-17T07:37:50.028Z,11.32
2023-01-17T07:40:18.715Z,8.85
2023-01-17T07:42:46.263Z,8.98
2023-01-17T07:45:15.381Z,8.32
2023-01-17T07:47:42.773Z,10.98
2023-01-17T07:50:10.442Z,10.73
2023-01-17T07:52:37.401Z,11.80
2023-01-17T07:55:05.151Z,10.35
2023-01-17T07:57:32.735Z,12.40
2023-01-17T07:59:59.740Z,10.10
2023-01-17T08:02:26.668Z,9.00
2023-01-17T08:04:53.818Z,9.15
2023-01-17T08:07:21.071Z,9.85
2023-01-17T08:09:50.178Z,10.30
2023-01-17T08:12:17.629Z,8.85
2023-01-17T08:14:45.042Z,8.52
2023-01-17T08:17:17.063Z,9.07
2023-01-17T08:19:44.982Z,8.75
2023-01-17T08:22:12.460Z,9.23
2023-01-17T08:24:39.510Z,8.93
2023-01-17T08:27:06.686Z,8.00
2023-01-17T08:29:33.652Z,9.20
2023-01-17T08:32:00.617Z,11.40
2023-01-17T08:34:27.702Z,11.25
2023-01-17T08:36:54.932Z,9.55
2023-01-17T08:39:22.191Z,8.55
2023-01-17T08:41:49.237Z,8.30
2023-01-17T08:44:16.299Z,9.75
2023-01-17T08:46:44.288Z,7.10
2023-01-17T08:49:12.432Z,9.75
2023-01-17T08:51:40.094Z,8.45
2023-01-17T08:54:07.607Z,8.02
2023-01-17T08:56:35.505Z,8.80
2023-01-17T08:59:03.126Z,9.15
2023-01-17T09:01:30.340Z,10.18
2023-01-17T09:03:57.453Z,11.07
2023-01-17T09:06:24.416Z,14.02
2023-01-17T09:08:54.694Z,13.23
2023-01-17T09:11:21.678Z,12.30
2023-01-17T09:13:48.677Z,9.65
2023-01-17T09:16:15.768Z,12.10
2023-01-17T09:18:42.725Z,10.95
2023-01-17T09:21:16.364Z,13.70
2023-01-17T09:23:43.979Z,10.48
2023-01-17T09:26:37.303Z,10.68
2023-01-17T09:29:04.818Z,10.07
2023-01-17T09:31:31.837Z,10.63
2023-01-17T09:33:59.101Z,9.73
2023-01-17T09:36:33.905Z,10.63
2023-01-17T09:39:04.567Z,12.88
2023-01-17T09:41:44.889Z,11.15
2023-01-17T09:44:42.129Z,10.85
2023-01-17T09:47:16.582Z,10.80
2023-01-17T09:49:45.337Z,14.15
2023-01-17T09:52:16.216Z,11.35
2023-01-17T09:54:45.957Z,14.68
2023-01-17T09:58:08.508Z,15.35
2023-01-17T10:00:44.655Z,13.07
2023-01-17T10:03:55.115Z,12.77
2023-01-17T10:06:49.596Z,14.20
2023-01-17T10:09:41.038Z,14.70
2023-01-17T10:12:20.699Z,14.60
2023-01-17T10:15:03.589Z,14.32
2023-01-17T10:17:49.101Z,14.73
2023-01-17T10:20:57.738Z,14.20
2023-01-17T10:23:45.364Z,14.32
2023-01-17T10:26:21.507Z,13.85
2023-01-17T10:28:51.596Z,15.52
2023-01-17T10:31:27.910Z,15.60
2023-01-17T10:33:57.065Z,13.63
2023-01-17T10:36:26.427Z,14.18
2023-01-17T10:39:02.653Z,14.50
2023-01-17T10:41:30.455Z,13.23
2023-01-17T10:44:20.919Z,14.20
2023-01-17T10:46:55.274Z,14.57
2023-01-17T10:49:25.165Z,15.82
2023-01-17T10:52:10.364Z,16.25
2023-01-17T10:54:46.253Z,16.58
2023-01-17T10:57:27.723Z,15.05
2023-01-17T11:00:00.053Z,14.93
2023-01-17T11:02:39.971Z,14.85
2023-01-17T11:05:24.993Z,14.43
2023-01-17T11:07:58.652Z,14.57
2023-01-17T11:10:42.770Z,14.45
2023-01-17T11:13:34.302Z,13.90
2023-01-17T11:16:10.812Z,13.98
2023-01-17T11:18:39.781Z,14.23
2023-01-17T11:21:12.177Z,13.00
2023-01-17T11:23:44.935Z,13.02
2023-01-17T11:26:28.633Z,13.43
2023-01-17T11:29:34.648Z,12.93
2023-01-17T11:32:53.078Z,12.65
2023-01-17T11:35:31.552Z,12.15
2023-01-17T11:38:02.867Z,12.98
2023-01-17T11:40:41.825Z,13.82
2023-01-17T11:43:11.926Z,13.23
2023-01-17T11:45:40.844Z,14.93
2023-01-17T11:48:11.204Z,12.50
2023-01-17T11:50:54.844Z,19.83
2023-01-17T11:53:26.128Z,14.23
2023-01-17T11:56:23.194Z,13.68
2023-01-17T11:58:51.190Z,15.70
2023-01-17T12:01:29.952Z,17.90
2023-01-17T12:04:30.828Z,14.18
2023-01-17T12:07:22.511Z,11.20
2023-01-17T12:10:14.003Z,12.70
2023-01-17T12:13:05.316Z,11.50
2023-01-17T12:15:51.928Z,12.45
2023-01-17T12:18:49.851Z,13.02
2023-01-17T12:21:20.693Z,11.57
2023-01-17T12:23:57.037Z,12.88
2023-01-17T12:26:59.608Z,12.57
2023-01-17T12:29:39.015Z,11.38
2023-01-17T12:32:48.083Z,10.48
2023-01-17T12:35:23.232Z,11.23
2023-01-17T12:38:05.888Z,9.88
2023-01-17T12:40:46.239Z,9.40
2023-01-17T12:43:16.132Z,12.60
2023-01-17T12:45:49.527Z,11.23
2023-01-17T12:48:19.032Z,11.20
2023-01-17T12:51:14.314Z,15.10
2023-01-17T12:53:56.606Z,12.60
2023-01-17T12:56:51.305Z,11.93
2023-01-17T13:02:16.302Z,12.98
2023-01-17T13:05:03.194Z,12.80
2023-01-17T13:07:44.397Z,10.98
2023-01-17T13:10:22.708Z,11.30
2023-01-17T13:12:52.083Z,10.55
2023-01-17T13:15:28.538Z,13.10
2023-01-17T13:18:14.604Z,11.25
2023-01-17T13:20:48.634Z,12.77
2023-01-17T13:23:30.847Z,10.73
2023-01-17T13:26:00.359Z,10.75
2023-01-17T13:28:45.149Z,11.73
2023-01-17T13:31:19.664Z,12.48
2023-01-17T13:34:08.420Z,12.57
2023-01-17T13:36:45.314Z,11.20
2023-01-17T13:39:51.902Z,19.75
2023-01-17T13:42:27.970Z,11.63
2023-01-17T13:44:56.005Z,13.10
2023-01-17T13:47:26.178Z,12.23
2023-01-17T13:49:56.727Z,14.60
2023-01-17T13:52:26.849Z,18.92
2023-01-17T13:54:55.396Z,15.98
2023-01-17T13:57:30.250Z,13.00
2023-01-17T13:59:59.612Z,14.13
2023-01-17T14:02:32.792Z,13.13
2023-01-17T14:05:07.289Z,13.90
2023-01-17T14:07:40.592Z,13.85
2023-01-17T14:10:37.189Z,14.18
2023-01-17T14:13:06.436Z,13.95
2023-01-17T14:15:47.139Z,11.40
2023-01-17T14:18:36.389Z,10.65
2023-01-17T14:21:11.329Z,10.55
2023-01-17T14:24:04.353Z,10.23
2023-01-17T14:26:47.460Z,10.13
2023-01-17T14:29:42.696Z,10.02
2023-01-17T14:32:26.103Z,8.70
2023-01-17T14:34:54.414Z,8.75
2023-01-17T14:37:41.206Z,9.60
2023-01-17T14:40:30.804Z,9.88
2023-01-17T14:43:13.203Z,10.88
2023-01-17T14:45:42.377Z,10.50
2023-01-17T14:48:19.708Z,11.10
2023-01-17T14:50:49.666Z,10.88
2023-01-17T14:53:20.551Z,9.48
2023-01-17T14:55:47.833Z,10.77
2023-01-17T14:58:31.270Z,10.73
2023-01-17T15:01:03.231Z,9.80
2023-01-17T15:03:41.855Z,9.60
2023-01-17T15:06:23.747Z,10.32
2023-01-17T15:08:54.883Z,9.23
2023-01-17T15:11:27.395Z,8.75
2023-01-17T15:13:57.635Z,8.95
2023-01-17T15:16:28.995Z,8.98
2023-01-17T15:18:57.480Z,9.15
2023-01-17T15:21:31.248Z,8.95
2023-01-17T15:24:07.165Z,8.68
2023-01-17T15:26:36.384Z,8.05
2023-01-17T15:29:07.106Z,9.43
2023-01-17T15:31:43.435Z,8.18
2023-01-17T15:34:22.617Z,8.35
2023-01-17T15:36:50.599Z,9.10
2023-01-17T15:39:30.439Z,7.50
2023-01-17T15:41:59.819Z,7.68
2023-01-17T15:44:49.726Z,7.50
2023-01-17T15:47:38.867Z,6.45
2023-01-17T15:50:39.828Z,7.05
2023-01-17T15:53:28.353Z,6.97
2023-01-17T15:55:55.644Z,6.50
2023-01-17T15:58:30.134Z,6.18
2023-01-17T16:00:57.569Z,7.00
2023-01-17T16:03:30.126Z,7.03
2023-01-17T16:06:00.402Z,6.15
2023-01-17T16:08:33.727Z,6.25
2023-01-17T16:11:03.632Z,7.32
2023-01-17T16:13:34.967Z,7.22
2023-01-17T16:16:15.893Z,7.63
2023-01-17T16:18:44.287Z,5.97
2023-01-17T16:21:25.092Z,6.70
2023-01-17T16:23:52.823Z,6.90
2023-01-17T16:26:20.166Z,6.40
2023-01-17T16:28:47.867Z,6.38
2023-01-17T16:31:15.594Z,6.45
2023-01-17T16:33:42.636Z,6.78
2023-01-17T16:36:15.192Z,6.95
2023-01-17T16:38:44.518Z,7.75
2023-01-17T16:41:11.851Z,6.95
2023-01-17T16:43:38.974Z,6.47
2023-01-17T16:46:06.277Z,7.00
2023-01-17T16:48:33.314Z,6.45
2023-01-17T16:51:06.269Z,5.65
2023-01-17T16:53:33.293Z,6.10
2023-01-17T16:56:09.514Z,6.88
2023-01-17T16:58:36.525Z,6.70
2023-01-17T17:01:08.084Z,7.25
2023-01-17T17:03:35.177Z,8.82
2023-01-17T17:06:02.240Z,8.65
2023-01-17T17:08:30.041Z,9.45
2023-01-17T17:11:25.600Z,9.93
2023-01-17T17:13:53.950Z,8.88
2023-01-17T17:16:23.778Z,9.90
2023-01-17T17:19:02.180Z,8.48
2023-01-17T17:21:30.648Z,10.57
2023-01-17T17:23:59.640Z,9.15
2023-01-17T17:26:31.838Z,10.30
2023-01-17T17:28:59.160Z,10.52
2023-01-17T17:31:26.909Z,9.02
2023-01-17T17:33:58.684Z,9.40
2023-01-17T17:36:26.426Z,9.60
2023-01-17T17:38:57.832Z,10.50
2023-01-17T17:41:29.116Z,9.45
2023-01-17T17:43:56.630Z,10.20
2023-01-17T17:46:25.197Z,10.10
2023-01-17T17:48:52.254Z,10.02
2023-01-17T17:51:29.703Z,9.95
2023-01-17T17:54:00.944Z,10.80
2023-01-17T17:56:29.858Z,10.75
2023-01-17T17:58:58.166Z,11.40
2023-01-17T18:01:25.319Z,9.80
2023-01-17T18:03:53.768Z,9.10
2023-01-17T18:06:21.096Z,10.95
2023-01-17T18:08:48.358Z,11.10
2023-01-17T18:11:21.343Z,11.35
2023-01-17T18:13:50.562Z,11.75
2023-01-17T18:16:21.251Z,11.80
2023-01-17T18:18:50.890Z,11.25
2023-01-17T18:21:25.503Z,12.13
2023-01-17T18:24:04.727Z,14.18
2023-01-17T18:26:39.380Z,10.70
2023-01-17T18:29:08.160Z,10.57
2023-01-17T18:31:35.183Z,13.05
2023-01-17T18:34:07.743Z,12.15
2023-01-17T18:36:35.790Z,10.70
2023-01-17T18:39:10.077Z,14.18
2023-01-17T18:41:37.178Z,11.70
2023-01-17T18:44:07.502Z,14.15
2023-01-17T18:46:35.599Z,11.48
2023-01-17T18:49:02.949Z,12.88
2023-01-17T18:51:32.625Z,12.95
2023-01-17T18:54:02.881Z,12.73
2023-01-17T18:56:32.099Z,13.27
2023-01-17T18:58:59.183Z,12.63
2023-01-17T19:01:29.722Z,12.35
2023-01-17T19:03:58.985Z,14.68
2023-01-17T19:06:30.577Z,14.43
2023-01-17T19:08:59.177Z,14.02
2023-01-17T19:11:27.739Z,13.48
2023-01-17T19:13:55.192Z,13.85
2023-01-17T19:16:25.554Z,12.15
2023-01-17T19:18:53.008Z,13.68
2023-01-17T19:21:22.259Z,13.85
2023-01-17T19:23:50.412Z,15.25
2023-01-17T19:26:19.877Z,15.32
2023-01-17T19:28:48.929Z,14.98
2023-01-17T19:31:18.240Z,15.02
2023-01-17T19:33:46.883Z,13.63
2023-01-17T19:36:20.108Z,14.32
2023-01-17T19:39:02.957Z,14.43
2023-01-17T19:41:31.200Z,14.43
2023-01-17T19:44:00.660Z,14.38
2023-01-17T19:46:28.401Z,13.95
2023-01-17T19:48:57.135Z,11.40
2023-01-17T19:51:25.467Z,14.20
2023-01-17T19:53:53.759Z,12.70
2023-01-17T19:56:25.062Z,12.57
2023-01-17T19:58:52.717Z,13.45
2023-01-17T20:01:24.671Z,13.95
2023-01-17T20:03:52.508Z,12.27
2023-01-17T20:06:22.220Z,13.07
2023-01-17T20:08:49.359Z,13.63
2023-01-17T20:11:19.761Z,13.05
2023-01-17T20:13:47.857Z,11.88
2023-01-17T20:16:16.621Z,13.80
2023-01-17T20:18:44.609Z,13.00
2023-01-17T20:21:19.136Z,12.60
2023-01-17T20:23:47.594Z,14.02
2023-01-17T20:26:17.126Z,13.77
2023-01-17T20:28:45.960Z,12.90
2023-01-17T20:31:18.056Z,13.63
2023-01-17T20:33:47.033Z,13.85
2023-01-17T20:36:15.644Z,15.40
2023-01-17T20:38:44.244Z,12.95
2023-01-17T20:41:18.192Z,13.70
2023-01-17T20:46:14.487Z,14.07
2023-01-17T20:48:50.424Z,14.02
2023-01-17T20:51:18.958Z,11.40
2023-01-17T20:53:50.548Z,14.15
2023-01-17T20:56:18.894Z,14.50
2023-01-17T20:58:46.224Z,14.63
2023-01-17T21:01:19.630Z,14.82
2023-01-17T21:03:49.274Z,13.95
2023-01-17T21:06:16.205Z,12.88
2023-01-17T21:08:45.246Z,12.13
2023-01-17T21:11:15.293Z,14.80
2023-01-17T21:13:42.713Z,14.50
2023-01-17T21:16:12.820Z,14.57
2023-01-17T21:18:40.157Z,13.98
2023-01-17T21:21:10.649Z,15.55
2023-01-17T21:23:39.317Z,13.30
2023-01-17T21:26:07.545Z,14.00
2023-01-17T21:28:40.132Z,13.88
2023-01-17T21:31:18.149Z,13.90
2023-01-17T21:33:45.594Z,12.85
2023-01-17T21:36:12.849Z,12.95
2023-01-17T21:38:39.934Z,13.00
2023-01-17T21:41:06.988Z,13.02
2023-01-17T21:43:34.009Z,12.85
2023-01-17T21:46:09.808Z,12.80
2023-01-17T21:48:41.691Z,13.00
2023-01-17T21:51:09.405Z,13.30
2023-01-17T21:53:38.103Z,12.02
2023-01-17T21:56:26.188Z,12.00
2023-01-17T21:58:56.728Z,12.00
2023-01-17T22:01:30.262Z,9.32
2023-01-17T22:04:00.252Z,14.00
2023-01-17T22:06:30.353Z,13.55
2023-01-17T22:08:58.225Z,13.73
2023-01-17T22:11:26.987Z,12.55
2023-01-17T22:13:54.092Z,12.00
2023-01-17T22:16:24.139Z,18.00
2023-01-17T22:18:51.685Z,16.63
2023-01-17T22:21:24.142Z,16.75
2023-01-17T22:23:57.048Z,14.45
2023-01-17T22:26:27.282Z,13.65
2023-01-17T22:28:59.804Z,15.18
2023-01-17T22:31:28.101Z,14.93
2023-01-17T22:34:03.428Z,14.85
2023-01-17T22:36:32.923Z,13.55
2023-01-17T22:39:00.523Z,16.90
2023-01-17T22:41:34.692Z,18.10
2023-01-17T22:44:02.504Z,18.45
2023-01-17T22:46:31.848Z,16.85
2023-01-17T22:48:59.620Z,13.75
2023-01-17T22:51:28.537Z,42.53
2023-01-17T22:53:58.419Z,49.80
2023-01-17T22:56:28.722Z,64.75
2023-01-17T22:58:55.956Z,34.30
2023-01-17T23:01:29.078Z,51.85
2023-01-17T23:04:01.684Z,35.43
2023-01-17T23:06:31.399Z,18.33
2023-01-17T23:09:01.323Z,15.70
2023-01-17T23:11:42.485Z,14.23
2023-01-17T23:14:53.847Z,12.38
2023-01-17T23:17:41.001Z,14.27
2023-01-17T23:20:10.890Z,13.95
2023-01-17T23:22:37.917Z,14.98
2023-01-17T23:25:08.161Z,15.65
2023-01-17T23:28:03.261Z,12.48
2023-01-17T23:30:40.430Z,11.88
2023-01-17T23:33:12.366Z,12.43
2023-01-17T23:35:42.478Z,10.38
2023-01-17T23:38:30.458Z,10.40
2023-01-17T23:41:22.201Z,10.68
2023-01-17T23:43:57.169Z,10.43
2023-01-17T23:46:25.514Z,8.82
2023-01-17T23:48:52.706Z,9.55
2023-01-17T23:51:19.754Z,9.77
2023-01-17T23:53:46.792Z,10.35
2023-01-17T23:56:15.861Z,10.05
2023-01-17T23:58:43.005Z,8.73
